Time;durP1;ratioP1;P1;durP2;ratioP2;P2;SDS_P1;SDS_P2;PMS_P1;PMS_P2;Temp;Humidity;BMP_temperature;BMP_pressure;BME280_temperature;BME280_humidity;BME280_pressure;Samples;Min_cycle;Max_cycle;Signal;HPM_P1;HPM_P2
2022/02/18 00:00:17;;;;;;;;;;;;;;;;;;4991509;28;793;-71
2022/02/18 00:02:44;;;;;;;;;;;;;;;;;;4995180;28;1027;-71
2022/02/18 00:05:10;;;;;;;;;;;;;;;;;;4995053;28;1127;-72
2022/02/18 00:07:37;;;;;;;;;;;;;;;;;;4995087;28;1294;-71
2022/02/18 00:10:03;;;;;;;;;;;;;;;;;;4995139;28;1973;-72
2022/02/18 00:12:31;;;;;;;;;;;;;;;;;;4995063;28;1074;-72
2022/02/18 00:14:57;;;;;;;;;;;;;;;;;;4994801;28;786;-71
2022/02/18 00:17:23;;;;;;;;;;;;;;;;;;4994817;28;1323;-72
2022/02/18 00:19:51;;;;;;;;;;;;;;;;;;4977510;28;1392;-71
2022/02/18 00:22:17;;;;;;;;;;;;;;;;;;4994709;28;1137;-71
2022/02/18 00:24:43;;;;;;;;;;;;;;;;;;4994455;28;1062;-71
2022/02/18 00:27:10;;;;;;;;;;;;;;;;;;4995157;28;1416;-71
2022/02/18 00:29:38;;;;;;;;;;;;;;;;;;4977203;28;1919;-71
2022/02/18 00:32:08;;;;;;;;;;;;;;;;;;4994951;28;802;-71
2022/02/18 00:34:34;;;;;;;;;;;;;;;;;;4994387;28;917;-71
2022/02/18 00:37:01;;;;;;;;;;;;;;;;;;4976991;28;1440;-71
2022/02/18 00:39:27;;;;;;;;;;;;;;;;;;4976885;28;1020;-71
2022/02/18 00:41:55;;;;;;;;;;;;;;;;;;4994626;28;862;-72
2022/02/18 00:44:21;;;;;;;;;;;;;;;;;;4976797;28;1465;-71
2022/02/18 00:46:51;;;;;;;;;;;;;;;;;;4976921;28;1313;-72
2022/02/18 00:49:17;;;;;;;;;;;;;;;;;;4994402;28;1922;-71
2022/02/18 00:51:44;;;;;;;;;;;;;;;;;;4977053;28;1254;-72
2022/02/18 00:54:11;;;;;;;;;;;;;;;;;;4976857;28;1221;-69
2022/02/18 00:56:39;;;;;;;;;;;;;;;;;;4993866;28;1427;-72
2022/02/18 00:59:06;;;;;;;;;;;;;;;;;;4993783;28;1500;-71
2022/02/18 01:01:32;;;;;;;;;;;;;;;;;;4993989;28;856;-71
2022/02/18 01:03:59;;;;;;;;;;;;;;;;;;4994324;28;1055;-70
2022/02/18 01:06:26;;;;;;;;;;;;;;;;;;4993820;28;1368;-72
2022/02/18 01:08:52;;;;;;;;;;;;;;;;;;4992807;28;1983;-72
2022/02/18 01:11:18;;;;;;;;;;;;;;;;;;4994050;28;1117;-71
2022/02/18 01:13:44;;;;;;;;;;;;;;;;;;4992920;28;1121;-71
2022/02/18 01:16:11;;;;;;;;;;;;;;;;;;4993524;28;1300;-71
2022/02/18 01:18:37;;;;;;;;;;;;;;;;;;4992605;28;1299;-72
2022/02/18 01:21:05;;;;;;;;;;;;;;;;;;4992203;28;1223;-71
2022/02/18 01:23:31;;;;;;;;;;;;;;;;;;4992518;28;1164;-71
2022/02/18 01:25:57;;;;;;;;;;;;;;;;;;4993710;28;1329;-70
2022/02/18 01:28:23;;;;;;;;;;;;;;;;;;4992524;28;1109;-71
2022/02/18 01:30:50;;;;;;;;;;;;;;;;;;4992419;28;1985;-72
2022/02/18 01:33:16;;;;;;;;;;;;;;;;;;4993710;28;936;-71
2022/02/18 01:35:42;;;;;;;;;;;;;;;;;;4991763;28;1367;-71
2022/02/18 01:38:10;;;;;;;;;;;;;;;;;;4992272;28;1399;-72
2022/02/18 01:40:36;;;;;;;;;;;;;;;;;;4993545;28;964;-71
2022/02/18 01:43:02;;;;;;;;;;;;;;;;;;4992304;28;825;-70
2022/02/18 01:45:28;;;;;;;;;;;;;;;;;;4991868;28;1210;-71
2022/02/18 01:47:55;;;;;;;;;;;;;;;;;;4993148;28;1390;-71
2022/02/18 01:50:21;;;;;;;;;;;;;;;;;;4993144;28;1972;-71
2022/02/18 01:52:48;;;;;;;;;;;;;;;;;;4992041;28;1188;-72
2022/02/18 01:55:16;;;;;;;;;;;;;;;;;;4992886;28;991;-71
2022/02/18 01:57:44;;;;;;;;;;;;;;;;;;5003202;28;1417;-71
2022/02/18 02:00:12;;;;;;;;;;;;;;;;;;4993285;28;972;-71
2022/02/18 02:02:40;;;;;;;;;;;;;;;;;;4993481;28;724;-71
2022/02/18 02:05:07;;;;;;;;;;;;;;;;;;4992926;28;778;-71
2022/02/18 02:07:34;;;;;;;;;;;;;;;;;;4991805;28;1310;-71
2022/02/18 02:10:00;;;;;;;;;;;;;;;;;;4992922;28;1914;-71
2022/02/18 02:12:28;;;;;;;;;;;;;;;;;;4991424;28;1312;-72
2022/02/18 02:14:55;;;;;;;;;;;;;;;;;;5007603;28;1482;-71
2022/02/18 02:17:26;;;;;;;;;;;;;;;;;;4993213;28;1324;-71
2022/02/18 02:19:53;;;;;;;;;;;;;;;;;;4991821;28;1369;-71
2022/02/18 02:22:25;;;;;;;;;;;;;;;;;;5007837;28;1365;-71
2022/02/18 02:24:51;;;;;;;;;;;;;;;;;;5007457;28;1471;-72
2022/02/18 02:27:19;;;;;;;;;;;;;;;;;;4991439;28;1424;-71
2022/02/18 02:29:47;;;;;;;;;;;;;;;;;;4991166;28;1977;-71
2022/02/18 02:32:15;;;;;;;;;;;;;;;;;;5007709;28;1717;-72
2022/02/18 02:34:41;;;;;;;;;;;;;;;;;;5007386;28;1385;-72
2022/02/18 02:37:07;;;;;;;;;;;;;;;;;;4992613;28;1317;-72
2022/02/18 02:39:35;;;;;;;;;;;;;;;;;;4991111;28;1302;-70
2022/02/18 02:42:02;;;;;;;;;;;;;;;;;;4992635;28;841;-71
2022/02/18 02:44:29;;;;;;;;;;;;;;;;;;5007187;28;1088;-71
2022/02/18 02:47:06;;;;;;;;;;;;;;;;;;5007164;28;1369;-71
2022/02/18 02:49:33;;;;;;;;;;;;;;;;;;4992237;28;1980;-71
2022/02/18 02:51:59;;;;;;;;;;;;;;;;;;4990959;28;1178;-71
2022/02/18 02:54:26;;;;;;;;;;;;;;;;;;5007160;28;1012;-71
2022/02/18 02:57:03;;;;;;;;;;;;;;;;;;5007214;28;1862;-71
2022/02/18 02:59:35;;;;;;;;;;;;;;;;;;4990892;28;1349;-71
2022/02/18 03:02:02;;;;;;;;;;;;;;;;;;5006913;28;1653;-71
2022/02/18 03:04:29;;;;;;;;;;;;;;;;;;4991610;28;1548;-71
2022/02/18 03:06:57;;;;;;;;;;;;;;;;;;4990609;28;1330;-72
2022/02/18 03:09:23;;;;;;;;;;;;;;;;;;5007116;28;1976;-70
2022/02/18 03:12:20;;;;;;;;;;;;;;;;;;4985573;28;1430;-71
2022/02/18 03:14:49;;;;;;;;;;;;;;;;;;4990606;28;1193;-72
2022/02/18 03:17:26;;;;;;;;;;;;;;;;;;5007129;28;1436;-71
2022/02/18 03:20:09;;;;;;;;;;;;;;;;;;5007076;28;1230;-70
2022/02/18 03:22:36;;;;;;;;;;;;;;;;;;5006802;28;1023;-72
2022/02/18 03:25:02;;;;;;;;;;;;;;;;;;5006671;28;1169;-69
2022/02/18 03:27:30;;;;;;;;;;;;;;;;;;4991487;28;1886;-71
2022/02/18 03:29:57;;;;;;;;;;;;;;;;;;5005150;28;1982;-71
2022/02/18 03:32:25;;;;;;;;;;;;;;;;;;4990489;28;1235;-70
2022/02/18 03:34:51;;;;;;;;;;;;;;;;;;5006515;28;1176;-70
2022/02/18 03:37:27;;;;;;;;;;;;;;;;;;4993830;28;1408;-70
2022/02/18 03:39:58;;;;;;;;;;;;;;;;;;4994757;28;1032;-71
2022/02/18 03:42:25;;;;;;;;;;;;;;;;;;4995807;28;836;-70
2022/02/18 03:44:53;;;;;;;;;;;;;;;;;;4993833;28;980;-70
2022/02/18 03:47:19;;;;;;;;;;;;;;;;;;4994467;28;1491;-70
2022/02/18 03:49:46;;;;;;;;;;;;;;;;;;4994180;28;1977;-70
2022/02/18 03:52:12;;;;;;;;;;;;;;;;;;4994449;28;1341;-69
2022/02/18 03:54:39;;;;;;;;;;;;;;;;;;4994108;28;1540;-70
2022/02/18 03:57:05;;;;;;;;;;;;;;;;;;4995174;28;1432;-70
2022/02/18 03:59:32;;;;;;;;;;;;;;;;;;4994234;28;1169;-70
2022/02/18 04:02:02;;;;;;;;;;;;;;;;;;4994158;28;1480;-69
2022/02/18 04:04:29;;;;;;;;;;;;;;;;;;4977251;28;1687;-70
2022/02/18 04:07:11;;;;;;;;;;;;;;;;;;4977767;28;1440;-70
2022/02/18 04:09:45;;;;;;;;;;;;;;;;;;4994197;28;1972;-70
2022/02/18 04:12:17;;;;;;;;;;;;;;;;;;4993857;28;1527;-69
2022/02/18 04:14:44;;;;;;;;;;;;;;;;;;4993795;28;1388;-70
2022/02/18 04:17:16;;;;;;;;;;;;;;;;;;4994019;28;1378;-69
2022/02/18 04:19:46;;;;;;;;;;;;;;;;;;4993789;28;1008;-70
2022/02/18 04:22:20;;;;;;;;;;;;;;;;;;4993443;28;1320;-69
2022/02/18 04:24:48;;;;;;;;;;;;;;;;;;4993478;28;1520;-70
2022/02/18 04:27:15;;;;;;;;;;;;;;;;;;4994725;28;1376;-70
2022/02/18 04:29:41;;;;;;;;;;;;;;;;;;4994842;28;1922;-70
2022/02/18 04:32:08;;;;;;;;;;;;;;;;;;4994173;28;1428;-70
2022/02/18 04:34:35;;;;;;;;;;;;;;;;;;4966587;28;1572;-70
2022/02/18 04:37:01;;;;;;;;;;;;;;;;;;4972098;28;1321;-70
2022/02/18 04:39:28;;;;;;;;;;;;;;;;;;4974051;28;1201;-69
2022/02/18 04:41:54;;;;;;;;;;;;;;;;;;4973746;28;1520;-69
2022/02/18 04:44:20;;;;;;;;;;;;;;;;;;4972930;28;1504;-68
2022/02/18 04:46:46;;;;;;;;;;;;;;;;;;4975174;28;1301;-69
2022/02/18 04:49:13;;;;;;;;;;;;;;;;;;4974582;28;1481;-70
2022/02/18 04:51:40;;;;;;;;;;;;;;;;;;4975158;28;1919;-69
2022/02/18 04:54:06;;;;;;;;;;;;;;;;;;4974028;28;1441;-68
2022/02/18 04:56:33;;;;;;;;;;;;;;;;;;4979700;28;1495;-68
2022/02/18 04:58:59;;;;;;;;;;;;;;;;;;4992744;28;1562;-68
2022/02/18 05:01:25;;;;;;;;;;;;;;;;;;4994013;28;1579;-67
2022/02/18 05:03:52;;;;;;;;;;;;;;;;;;4993910;28;1575;-69
2022/02/18 05:06:18;;;;;;;;;;;;;;;;;;4993868;28;1512;-69
2022/02/18 05:08:46;;;;;;;;;;;;;;;;;;4993913;28;1503;-69
2022/02/18 05:11:12;;;;;;;;;;;;;;;;;;4994003;28;1986;-69
2022/02/18 05:13:39;;;;;;;;;;;;;;;;;;4993716;28;1551;-69
2022/02/18 05:16:05;;;;;;;;;;;;;;;;;;4993688;28;1364;-70
2022/02/18 05:18:31;;;;;;;;;;;;;;;;;;4993533;28;1586;-69
2022/02/18 05:20:57;;;;;;;;;;;;;;;;;;4993802;28;1477;-70
2022/02/18 05:23:23;;;;;;;;;;;;;;;;;;4993534;28;1566;-69
2022/02/18 05:25:51;;;;;;;;;;;;;;;;;;4994603;28;1866;-71
2022/02/18 05:28:17;;;;;;;;;;;;;;;;;;4999471;28;1396;-70
2022/02/18 05:30:43;;;;;;;;;;;;;;;;;;5001793;28;1914;-70
2022/02/18 05:33:12;;;;;;;;;;;;;;;;;;5001771;28;1283;-69
2022/02/18 05:35:38;;;;;;;;;;;;;;;;;;5003654;28;1248;-69
2022/02/18 05:38:05;;;;;;;;;;;;;;;;;;5002197;28;1336;-70
2022/02/18 05:40:31;;;;;;;;;;;;;;;;;;5002749;28;1236;-71
2022/02/18 05:42:58;;;;;;;;;;;;;;;;;;5003706;28;1248;-70
2022/02/18 05:45:25;;;;;;;;;;;;;;;;;;4999083;28;1221;-70
2022/02/18 05:47:51;;;;;;;;;;;;;;;;;;5002498;28;1480;-70
2022/02/18 05:50:18;;;;;;;;;;;;;;;;;;5003399;28;1938;-70
2022/02/18 05:52:44;;;;;;;;;;;;;;;;;;4999041;28;1324;-70
2022/02/18 05:55:11;;;;;;;;;;;;;;;;;;5002069;28;1319;-70
2022/02/18 05:57:37;;;;;;;;;;;;;;;;;;5012047;28;1402;-70
2022/02/18 06:00:07;;;;;;;;;;;;;;;;;;4998509;28;1203;-70
2022/02/18 06:02:39;;;;;;;;;;;;;;;;;;4993265;28;698;-70
2022/02/18 06:05:05;;;;;;;;;;;;;;;;;;4992753;28;849;-69
2022/02/18 06:07:31;;;;;;;;;;;;;;;;;;4992910;28;1301;-68
2022/02/18 06:09:58;;;;;;;;;;;;;;;;;;4992645;28;924;-68
2022/02/18 06:12:24;;;;;;;;;;;;;;;;;;4992750;28;1915;-69
2022/02/18 06:14:50;;;;;;;;;;;;;;;;;;4992624;28;892;-69
2022/02/18 06:17:18;;;;;;;;;;;;;;;;;;4992681;28;1384;-69
2022/02/18 06:19:44;;;;;;;;;;;;;;;;;;4991490;28;1047;-70
2022/02/18 06:22:10;;;;;;;;;;;;;;;;;;4992527;28;875;-70
2022/02/18 06:24:37;;;;;;;;;;;;;;;;;;4992180;28;1102;-69
2022/02/18 06:27:03;;;;;;;;;;;;;;;;;;4991813;28;1404;-70
2022/02/18 06:29:29;;;;;;;;;;;;;;;;;;5000158;28;1137;-69
2022/02/18 06:31:57;;;;;;;;;;;;;;;;;;4991980;28;1915;-70
2022/02/18 06:34:24;;;;;;;;;;;;;;;;;;4991723;28;913;-70
2022/02/18 06:36:51;;;;;;;;;;;;;;;;;;4991826;28;1306;-70
2022/02/18 06:39:18;;;;;;;;;;;;;;;;;;4991920;28;995;-69
2022/02/18 06:41:44;;;;;;;;;;;;;;;;;;4991911;28;1138;-70
2022/02/18 06:44:10;;;;;;;;;;;;;;;;;;4991497;28;959;-68
2022/02/18 06:46:36;;;;;;;;;;;;;;;;;;4991741;28;1391;-69
2022/02/18 06:49:02;;;;;;;;;;;;;;;;;;4990543;28;1138;-69
2022/02/18 06:51:30;;;;;;;;;;;;;;;;;;4991603;28;1914;-69
2022/02/18 06:53:56;;;;;;;;;;;;;;;;;;4991596;28;928;-69
2022/02/18 06:56:22;;;;;;;;;;;;;;;;;;4991464;28;1372;-69
2022/02/18 06:58:48;;;;;;;;;;;;;;;;;;4991667;28;1097;-70
2022/02/18 07:01:15;;;;;;;;;;;;;;;;;;5032056;23;4109;-72
2022/02/18 07:03:42;;;;;;;;;;;;;;;;;;5030002;28;1507;-69
2022/02/18 07:06:09;;;;;;;;;;;;;;;;;;5030403;28;1089;-71
2022/02/18 07:08:36;;;;;;;;;;;;;;;;;;5031349;28;966;-72
2022/02/18 07:11:02;;;;;;;;;;;;;;;;;;5043060;28;1987;-72
2022/02/18 07:13:29;;;;;;;;;;;;;;;;;;5050621;28;955;-71
2022/02/18 07:15:55;;;;;;;;;;;;;;;;;;5050354;28;784;-72
2022/02/18 07:18:21;;;;;;;;;;;;;;;;;;5050506;28;1066;-71
2022/02/18 07:20:47;;;;;;;;;;;;;;;;;;5050784;28;1334;-72
2022/02/18 07:23:13;;;;;;;;;;;;;;;;;;5051616;28;1070;-72
2022/02/18 07:25:41;;;;;;;;;;;;;;;;;;5050441;28;1002;-71
2022/02/18 07:28:07;;;;;;;;;;;;;;;;;;5050612;28;1062;-72
2022/02/18 07:30:33;;;;;;;;;;;;;;;;;;5050591;28;1979;-72
2022/02/18 07:33:00;;;;;;;;;;;;;;;;;;5032937;28;1192;-71
2022/02/18 07:35:32;;;;;;;;;;;;;;;;;;5032720;28;1273;-72
2022/02/18 07:37:58;;;;;;;;;;;;;;;;;;5050438;28;639;-72
2022/02/18 07:40:25;;;;;;;;;;;;;;;;;;5050008;28;1314;-72
2022/02/18 07:42:52;;;;;;;;;;;;;;;;;;5032716;28;1239;-71
2022/02/18 07:45:18;;;;;;;;;;;;;;;;;;5050084;28;967;-71
2022/02/18 07:47:45;;;;;;;;;;;;;;;;;;5050230;28;1079;-72
2022/02/18 07:50:11;;;;;;;;;;;;;;;;;;5032531;28;1324;-71
2022/02/18 07:52:37;;;;;;;;;;;;;;;;;;5050152;28;1957;-72
2022/02/18 07:55:04;;;;;;;;;;;;;;;;;;5049963;28;859;-72
2022/02/18 07:57:30;;;;;;;;;;;;;;;;;;5050045;28;822;-71
2022/02/18 07:59:57;;;;;;;;;;;;;;;;;;5050000;28;1354;-72
2022/02/18 08:02:24;;;;;;;;;;;;;;;;;;5032319;28;1152;-72
2022/02/18 08:04:52;;;;;;;;;;;;;;;;;;5049949;28;793;-71
2022/02/18 08:07:18;;;;;;;;;;;;;;;;;;5050170;28;836;-71
2022/02/18 08:09:44;;;;;;;;;;;;;;;;;;5049937;28;1337;-72
2022/02/18 08:12:10;;;;;;;;;;;;;;;;;;5049987;28;1969;-72
2022/02/18 08:14:36;;;;;;;;;;;;;;;;;;5049466;28;1121;-72
2022/02/18 08:17:04;;;;;;;;;;;;;;;;;;5032062;28;1022;-71
2022/02/18 08:19:30;;;;;;;;;;;;;;;;;;5030214;28;1344;-72
2022/02/18 08:21:57;;;;;;;;;;;;;;;;;;5030965;28;859;-71
2022/02/18 08:24:23;;;;;;;;;;;;;;;;;;5015664;28;1110;-72
2022/02/18 08:26:49;;;;;;;;;;;;;;;;;;5033669;28;1003;-72
2022/02/18 08:29:16;;;;;;;;;;;;;;;;;;5033631;28;1130;-72
2022/02/18 08:31:42;;;;;;;;;;;;;;;;;;5033302;28;1906;-71
2022/02/18 08:34:09;;;;;;;;;;;;;;;;;;5033252;28;1106;-72
2022/02/18 08:36:36;;;;;;;;;;;;;;;;;;5033428;28;990;-71
2022/02/18 08:39:03;;;;;;;;;;;;;;;;;;5033454;28;952;-71
2022/02/18 08:41:30;;;;;;;;;;;;;;;;;;5015752;28;1401;-72
2022/02/18 08:43:58;;;;;;;;;;;;;;;;;;5033578;28;1066;-71
2022/02/18 08:46:24;;;;;;;;;;;;;;;;;;5033345;28;1078;-71
2022/02/18 08:48:50;;;;;;;;;;;;;;;;;;5033898;28;781;-73
2022/02/18 08:51:18;;;;;;;;;;;;;;;;;;5016078;28;1918;-73
2022/02/18 08:53:44;;;;;;;;;;;;;;;;;;5033975;28;959;-72
2022/02/18 08:56:10;;;;;;;;;;;;;;;;;;5032929;28;959;-73
2022/02/18 08:58:36;;;;;;;;;;;;;;;;;;5032976;28;1066;-72
2022/02/18 09:01:02;;;;;;;;;;;;;;;;;;5032960;28;1322;-72
2022/02/18 09:03:29;;;;;;;;;;;;;;;;;;5032926;28;1078;-72
2022/02/18 09:05:55;;;;;;;;;;;;;;;;;;5032626;28;879;-72
2022/02/18 09:08:26;;;;;;;;;;;;;;;;;;5015077;28;1165;-72
2022/02/18 09:10:52;;;;;;;;;;;;;;;;;;5032730;28;1341;-71
2022/02/18 09:13:20;;;;;;;;;;;;;;;;;;5047380;28;1977;-73
2022/02/18 09:15:46;;;;;;;;;;;;;;;;;;5050904;28;1142;-72
2022/02/18 09:18:18;;;;;;;;;;;;;;;;;;5015454;28;1427;-73
2022/02/18 09:20:45;;;;;;;;;;;;;;;;;;5014885;28;1374;-72
2022/02/18 09:23:11;;;;;;;;;;;;;;;;;;5032720;28;709;-71
2022/02/18 09:25:40;;;;;;;;;;;;;;;;;;5032107;28;1122;-72
2022/02/18 09:28:06;;;;;;;;;;;;;;;;;;5012235;28;2042;-71
2022/02/18 09:30:33;;;;;;;;;;;;;;;;;;5032390;28;1388;-72
2022/02/18 09:33:00;;;;;;;;;;;;;;;;;;5013985;28;1975;-72
2022/02/18 09:35:26;;;;;;;;;;;;;;;;;;5031542;28;950;-72
2022/02/18 09:37:53;;;;;;;;;;;;;;;;;;5032435;28;710;-71
2022/02/18 09:40:19;;;;;;;;;;;;;;;;;;5032418;28;1289;-73
2022/02/18 09:42:47;;;;;;;;;;;;;;;;;;5032270;28;1015;-72
2022/02/18 09:45:15;;;;;;;;;;;;;;;;;;5031910;28;1108;-72
2022/02/18 09:47:41;;;;;;;;;;;;;;;;;;5032155;28;1148;-71
2022/02/18 09:50:08;;;;;;;;;;;;;;;;;;5032085;28;1403;-72
2022/02/18 09:52:34;;;;;;;;;;;;;;;;;;5032170;28;1969;-73
2022/02/18 09:55:00;;;;;;;;;;;;;;;;;;5031687;28;1237;-74
2022/02/18 09:57:28;;;;;;;;;;;;;;;;;;5032073;28;963;-73
2022/02/18 09:59:55;;;;;;;;;;;;;;;;;;5031950;28;1317;-70
2022/02/18 10:02:21;;;;;;;;;;;;;;;;;;5031871;28;1062;-72
2022/02/18 10:04:47;;;;;;;;;;;;;;;;;;5031544;28;1006;-73
2022/02/18 10:07:14;;;;;;;;;;;;;;;;;;5031650;28;1070;-73
2022/02/18 10:09:41;;;;;;;;;;;;;;;;;;5033033;28;1338;-73
2022/02/18 10:12:08;;;;;;;;;;;;;;;;;;5031684;28;2376;-72
2022/02/18 10:14:53;;;;;;;;;;;;;;;;;;5031389;28;1059;-73
2022/02/18 10:17:22;;;;;;;;;;;;;;;;;;5031722;28;1066;-72
2022/02/18 10:19:52;;;;;;;;;;;;;;;;;;5032395;28;1319;-73
2022/02/18 10:22:22;;;;;;;;;;;;;;;;;;5031701;28;1151;-73
2022/02/18 10:24:52;;;;;;;;;;;;;;;;;;5030920;28;805;-72
2022/02/18 10:27:18;;;;;;;;;;;;;;;;;;5031450;28;947;-72
2022/02/18 10:29:58;;;;;;;;;;;;;;;;;;5013782;28;1408;-72
2022/02/18 10:32:26;;;;;;;;;;;;;;;;;;5031306;28;1922;-72
2022/02/18 10:34:52;;;;;;;;;;;;;;;;;;5031150;28;1027;-72
2022/02/18 10:37:20;;;;;;;;;;;;;;;;;;5031334;28;1058;-72
2022/02/18 10:39:46;;;;;;;;;;;;;;;;;;5030983;28;1296;-72
2022/02/18 10:42:12;;;;;;;;;;;;;;;;;;5031105;28;797;-72
2022/02/18 10:44:38;;;;;;;;;;;;;;;;;;5030499;28;1202;-73
2022/02/18 10:47:06;;;;;;;;;;;;;;;;;;5031101;28;844;-73
2022/02/18 10:49:36;;;;;;;;;;;;;;;;;;5031050;28;1312;-72
2022/02/18 10:52:03;;;;;;;;;;;;;;;;;;5030654;28;1957;-71
2022/02/18 10:54:30;;;;;;;;;;;;;;;;;;5030919;28;753;-73
2022/02/18 10:57:11;;;;;;;;;;;;;;;;;;5030536;28;1074;-72
2022/02/18 10:59:37;;;;;;;;;;;;;;;;;;5030704;28;1324;-71
2022/02/18 11:02:04;;;;;;;;;;;;;;;;;;5030824;28;1163;-72
2022/02/18 11:04:30;;;;;;;;;;;;;;;;;;5013138;28;1492;-73
2022/02/18 11:07:09;;;;;;;;;;;;;;;;;;5046311;28;1499;-73
2022/02/18 11:09:35;;;;;;;;;;;;;;;;;;5050539;28;1446;-73
2022/02/18 11:12:06;;;;;;;;;;;;;;;;;;5050704;28;1918;-72
2022/02/18 11:14:32;;;;;;;;;;;;;;;;;;5050048;28;1116;-73
2022/02/18 11:16:59;;;;;;;;;;;;;;;;;;5050404;28;891;-73
2022/02/18 11:19:25;;;;;;;;;;;;;;;;;;5050599;28;936;-72
2022/02/18 11:21:51;;;;;;;;;;;;;;;;;;5046721;28;1402;-72
2022/02/18 11:24:21;;;;;;;;;;;;;;;;;;5030206;28;772;-72
2022/02/18 11:26:47;;;;;;;;;;;;;;;;;;5030490;28;1133;-71
2022/02/18 11:29:13;;;;;;;;;;;;;;;;;;5030502;28;1062;-72
2022/02/18 11:31:40;;;;;;;;;;;;;;;;;;5030294;28;1314;-72
2022/02/18 11:34:19;;;;;;;;;;;;;;;;;;5029884;28;2013;-72
2022/02/18 11:36:53;;;;;;;;;;;;;;;;;;5030441;28;1062;-73
2022/02/18 11:39:28;;;;;;;;;;;;;;;;;;5030444;28;956;-73
2022/02/18 11:41:58;;;;;;;;;;;;;;;;;;5030279;28;1066;-72
2022/02/18 11:44:31;;;;;;;;;;;;;;;;;;5030355;28;1121;-72
2022/02/18 11:47:16;;;;;;;;;;;;;;;;;;5030568;28;1003;-72
2022/02/18 11:49:42;;;;;;;;;;;;;;;;;;5031017;28;1312;-71
2022/02/18 11:52:09;;;;;;;;;;;;;;;;;;5030047;28;1910;-73
2022/02/18 11:54:37;;;;;;;;;;;;;;;;;;5012684;28;1151;-73
2022/02/18 11:57:04;;;;;;;;;;;;;;;;;;5014094;28;972;-71
2022/02/18 11:59:43;;;;;;;;;;;;;;;;;;5034081;28;1350;-73
2022/02/18 12:02:09;;;;;;;;;;;;;;;;;;5034411;28;888;-72
2022/02/18 12:04:36;;;;;;;;;;;;;;;;;;5034130;28;784;-72
2022/02/18 12:07:21;;;;;;;;;;;;;;;;;;5016174;28;1357;-72
2022/02/18 12:09:59;;;;;;;;;;;;;;;;;;5033796;28;1395;-73
2022/02/18 12:12:27;;;;;;;;;;;;;;;;;;5033749;28;1922;-73
2022/02/18 12:14:55;;;;;;;;;;;;;;;;;;5033890;28;1078;-72
2022/02/18 12:17:21;;;;;;;;;;;;;;;;;;5034116;28;1066;-72
2022/02/18 12:19:47;;;;;;;;;;;;;;;;;;5033746;28;1322;-72
2022/02/18 12:22:13;;;;;;;;;;;;;;;;;;5033803;28;1268;-72
2022/02/18 12:24:40;;;;;;;;;;;;;;;;;;5033637;28;1121;-73
2022/02/18 12:27:28;;;;;;;;;;;;;;;;;;5033837;28;1113;-72
2022/02/18 12:29:55;;;;;;;;;;;;;;;;;;5033408;28;1327;-72
2022/02/18 12:32:23;;;;;;;;;;;;;;;;;;5016058;28;1963;-72
2022/02/18 12:34:58;;;;;;;;;;;;;;;;;;5033449;28;781;-72
2022/02/18 12:37:25;;;;;;;;;;;;;;;;;;5015776;28;1109;-72
2022/02/18 12:39:54;;;;;;;;;;;;;;;;;;5033412;28;1363;-73
2022/02/18 12:42:21;;;;;;;;;;;;;;;;;;5033442;28;1309;-71
2022/02/18 12:44:48;;;;;;;;;;;;;;;;;;5033154;28;916;-72
2022/02/18 12:47:16;;;;;;;;;;;;;;;;;;5033088;28;1129;-73
2022/02/18 12:49:43;;;;;;;;;;;;;;;;;;5033405;28;1322;-73
2022/02/18 12:52:10;;;;;;;;;;;;;;;;;;5033689;28;812;-72
2022/02/18 12:54:46;;;;;;;;;;;;;;;;;;5032978;28;1981;-73
2022/02/18 12:57:16;;;;;;;;;;;;;;;;;;5033399;28;1122;-72
2022/02/18 12:59:43;;;;;;;;;;;;;;;;;;5034913;28;1538;-72
2022/02/18 13:02:11;;;;;;;;;;;;;;;;;;5048017;23;3537;-71
2022/02/18 13:04:37;;;;;;;;;;;;;;;;;;5031573;28;1082;-71
2022/02/18 13:07:04;;;;;;;;;;;;;;;;;;5033458;28;1039;-71
2022/02/18 13:09:32;;;;;;;;;;;;;;;;;;5031739;28;1002;-71
2022/02/18 13:11:58;;;;;;;;;;;;;;;;;;5033030;28;1328;-71
2022/02/18 13:14:25;;;;;;;;;;;;;;;;;;5015005;28;1915;-71
2022/02/18 13:16:51;;;;;;;;;;;;;;;;;;5032778;28;902;-69
2022/02/18 13:19:20;;;;;;;;;;;;;;;;;;5032774;28;887;-71
2022/02/18 13:21:46;;;;;;;;;;;;;;;;;;5014268;28;1339;-71
2022/02/18 13:24:12;;;;;;;;;;;;;;;;;;5032276;28;1050;-70
2022/02/18 13:26:39;;;;;;;;;;;;;;;;;;5032438;28;800;-71
2022/02/18 13:29:05;;;;;;;;;;;;;;;;;;5032496;28;1089;-71
2022/02/18 13:31:32;;;;;;;;;;;;;;;;;;5032332;28;1399;-71
2022/02/18 13:33:58;;;;;;;;;;;;;;;;;;5013824;28;1918;-69
2022/02/18 13:36:27;;;;;;;;;;;;;;;;;;5032031;28;801;-70
2022/02/18 13:38:54;;;;;;;;;;;;;;;;;;5032056;28;1118;-71
2022/02/18 13:41:21;;;;;;;;;;;;;;;;;;5031952;28;1379;-71
2022/02/18 13:43:47;;;;;;;;;;;;;;;;;;5032412;28;872;-70
2022/02/18 13:46:14;;;;;;;;;;;;;;;;;;5031851;28;1082;-71
2022/02/18 13:48:41;;;;;;;;;;;;;;;;;;5031961;28;845;-71
2022/02/18 13:51:08;;;;;;;;;;;;;;;;;;5031971;28;1291;-70
2022/02/18 13:53:36;;;;;;;;;;;;;;;;;;5031939;28;1915;-72
2022/02/18 13:56:02;;;;;;;;;;;;;;;;;;5032171;28;1066;-72
2022/02/18 13:58:29;;;;;;;;;;;;;;;;;;5030132;28;1326;-72
2022/02/18 14:00:56;;;;;;;;;;;;;;;;;;5031797;28;1322;-72
2022/02/18 14:03:26;;;;;;;;;;;;;;;;;;5032127;28;857;-72
2022/02/18 14:06:06;;;;;;;;;;;;;;;;;;5031617;28;1066;-72
2022/02/18 14:08:33;;;;;;;;;;;;;;;;;;5026071;28;1239;-70
2022/02/18 14:11:08;;;;;;;;;;;;;;;;;;5014701;28;1400;-72
2022/02/18 14:13:34;;;;;;;;;;;;;;;;;;5031953;28;1988;-72
2022/02/18 14:16:07;;;;;;;;;;;;;;;;;;5014050;28;1410;-70
2022/02/18 14:18:33;;;;;;;;;;;;;;;;;;5031908;28;1109;-70
2022/02/18 14:21:00;;;;;;;;;;;;;;;;;;5013590;28;1729;-69
2022/02/18 14:23:29;;;;;;;;;;;;;;;;;;5015767;28;1155;-71
2022/02/18 14:25:55;;;;;;;;;;;;;;;;;;5011715;28;1074;-71
2022/02/18 14:28:23;;;;;;;;;;;;;;;;;;5011973;28;859;-71
2022/02/18 14:30:51;;;;;;;;;;;;;;;;;;5011795;28;1423;-71
2022/02/18 14:33:20;;;;;;;;;;;;;;;;;;5012210;28;1910;-71
2022/02/18 14:35:47;;;;;;;;;;;;;;;;;;4993477;28;1141;-72
2022/02/18 14:38:13;;;;;;;;;;;;;;;;;;5011976;28;871;-71
2022/02/18 14:40:40;;;;;;;;;;;;;;;;;;5011536;28;1335;-71
2022/02/18 14:43:06;;;;;;;;;;;;;;;;;;5011677;28;1144;-71
2022/02/18 14:45:34;;;;;;;;;;;;;;;;;;5011374;28;1058;-73
2022/02/18 14:48:01;;;;;;;;;;;;;;;;;;5011659;28;1106;-71
2022/02/18 14:50:29;;;;;;;;;;;;;;;;;;5011545;28;1018;-71
2022/02/18 14:52:55;;;;;;;;;;;;;;;;;;5010969;28;1915;-71
2022/02/18 14:55:22;;;;;;;;;;;;;;;;;;5011219;28;971;-71
2022/02/18 14:57:50;;;;;;;;;;;;;;;;;;5011478;28;1025;-71
2022/02/18 15:00:17;;;;;;;;;;;;;;;;;;5011363;28;857;-71
2022/02/18 15:02:44;;;;;;;;;;;;;;;;;;5011080;28;1267;-71
2022/02/18 15:05:11;;;;;;;;;;;;;;;;;;4996731;28;1520;-71
2022/02/18 15:07:37;;;;;;;;;;;;;;;;;;5030716;28;1487;-70
2022/02/18 15:10:03;;;;;;;;;;;;;;;;;;5030668;28;1125;-71
2022/02/18 15:12:30;;;;;;;;;;;;;;;;;;5030336;28;1359;-70
2022/02/18 15:14:56;;;;;;;;;;;;;;;;;;5030510;28;1923;-71
2022/02/18 15:17:22;;;;;;;;;;;;;;;;;;5030639;28;1058;-71
2022/02/18 15:19:50;;;;;;;;;;;;;;;;;;5030634;28;1058;-71
2022/02/18 15:22:16;;;;;;;;;;;;;;;;;;5023980;28;1333;-71
2022/02/18 15:24:43;;;;;;;;;;;;;;;;;;5010714;28;1007;-71
2022/02/18 15:27:09;;;;;;;;;;;;;;;;;;5010939;28;1132;-71
2022/02/18 15:35:05;;;;;;;;;;;;;;;;;;5029365;28;1922;-70
2022/02/18 15:37:31;;;;;;;;;;;;;;;;;;5030336;28;717;-71
2022/02/18 15:42:41;;;;;;;;;;;;;;;;;;5030479;28;1293;-69
2022/02/18 15:45:08;;;;;;;;;;;;;;;;;;5030110;28;1177;-70
2022/02/18 15:47:34;;;;;;;;;;;;;;;;;;5030330;28;809;-69
2022/02/18 15:50:01;;;;;;;;;;;;;;;;;;5012884;28;876;-72
2022/02/18 15:52:28;;;;;;;;;;;;;;;;;;5029762;28;1318;-71
2022/02/18 15:54:55;;;;;;;;;;;;;;;;;;5029591;28;1988;-71
2022/02/18 15:57:21;;;;;;;;;;;;;;;;;;5027142;28;1628;-70
2022/02/18 15:59:47;;;;;;;;;;;;;;;;;;5018539;28;1155;-71
2022/02/18 16:02:14;;;;;;;;;;;;;;;;;;5018955;28;1439;-70
2022/02/18 16:04:43;;;;;;;;;;;;;;;;;;5016469;28;1565;-69
2022/02/18 16:07:10;;;;;;;;;;;;;;;;;;5023969;28;1237;-70
2022/02/18 16:09:37;;;;;;;;;;;;;;;;;;5028055;28;1264;-70
2022/02/18 16:12:04;;;;;;;;;;;;;;;;;;5027912;28;1531;-70
2022/02/18 16:14:31;;;;;;;;;;;;;;;;;;5027500;28;1915;-70
2022/02/18 16:16:58;;;;;;;;;;;;;;;;;;5026452;28;1479;-70
2022/02/18 16:19:25;;;;;;;;;;;;;;;;;;5027644;28;975;-69
2022/02/18 16:21:52;;;;;;;;;;;;;;;;;;5027930;28;1513;-71
2022/02/18 16:24:19;;;;;;;;;;;;;;;;;;5028024;28;1061;-70
2022/02/18 16:26:47;;;;;;;;;;;;;;;;;;5027703;28;1489;-70
2022/02/18 16:29:14;;;;;;;;;;;;;;;;;;5024254;28;1430;-70
2022/02/18 16:31:40;;;;;;;;;;;;;;;;;;5026986;28;1542;-70
2022/02/18 16:34:06;;;;;;;;;;;;;;;;;;5028074;28;1983;-72
2022/02/18 16:36:33;;;;;;;;;;;;;;;;;;5024483;28;1554;-71
2022/02/18 16:38:59;;;;;;;;;;;;;;;;;;5010150;28;959;-71
2022/02/18 16:41:25;;;;;;;;;;;;;;;;;;5020949;28;1490;-68
2022/02/18 16:43:53;;;;;;;;;;;;;;;;;;5032011;28;1430;-69
2022/02/18 16:46:19;;;;;;;;;;;;;;;;;;5033119;28;800;-70
2022/02/18 16:48:46;;;;;;;;;;;;;;;;;;5032998;28;1569;-70
2022/02/18 16:51:14;;;;;;;;;;;;;;;;;;5032998;28;1556;-69
2022/02/18 16:53:41;;;;;;;;;;;;;;;;;;5030961;28;2488;-69
2022/02/18 16:56:07;;;;;;;;;;;;;;;;;;5031852;28;1413;-71
2022/02/18 16:58:33;;;;;;;;;;;;;;;;;;5029077;28;1486;-70
2022/02/18 17:01:01;;;;;;;;;;;;;;;;;;5024487;28;1504;-70
2022/02/18 17:03:27;;;;;;;;;;;;;;;;;;5010819;28;1140;-71
2022/02/18 17:05:53;;;;;;;;;;;;;;;;;;5028266;28;1464;-71
2022/02/18 17:08:19;;;;;;;;;;;;;;;;;;5029983;28;1066;-71
2022/02/18 17:10:46;;;;;;;;;;;;;;;;;;5030313;28;1516;-71
2022/02/18 17:13:13;;;;;;;;;;;;;;;;;;5031385;28;805;-71
2022/02/18 17:15:40;;;;;;;;;;;;;;;;;;5028437;28;1914;-72